Time;durP1;ratioP1;P1;durP2;ratioP2;P2;SDS_P1;SDS_P2;PMS_P1;PMS_P2;Temp;Humidity;BMP_temperature;BMP_pressure;BME280_temperature;BME280_humidity;BME280_pressure;Samples;Min_cycle;Max_cycle;Signal;HPM_P1;HPM_P2
2021/01/31 00:04:37;;;;;;;108.90;42.67;;;;;;;-1.86;83.06;97817.93;4388544;80;21281;-84
2021/01/31 00:10:40;;;;;;;112.00;44.07;;;;;;;-1.87;83.13;97815.83;4346372;81;21689;-84
2021/01/31 00:16:42;;;;;;;110.17;46.17;;;;;;;-1.86;83.17;97819.27;4342450;81;21219;-84
2021/01/31 00:22:43;;;;;;;98.60;41.23;;;;;;;-1.87;83.15;97826.55;4363116;80;21163;-84
2021/01/31 00:28:45;;;;;;;108.63;43.60;;;;;;;-1.93;83.23;97839.91;4331790;81;21214;-83
2021/01/31 00:34:47;;;;;;;108.10;44.27;;;;;;;-1.93;83.34;97836.44;4355548;81;21671;-83
2021/01/31 00:40:49;;;;;;;112.20;44.77;;;;;;;-1.90;83.49;97841.95;4354855;81;21268;-83
2021/01/31 00:46:50;;;;;;;109.87;45.57;;;;;;;-1.89;83.63;97838.69;4357089;81;22681;-83
2021/01/31 00:52:52;;;;;;;103.93;43.77;;;;;;;-1.85;83.33;97842.33;4356157;81;21173;-83
2021/01/31 00:58:54;;;;;;;104.73;44.17;;;;;;;-1.93;83.49;97837.23;4361982;80;21590;-83
2021/01/31 01:04:56;;;;;;;104.03;43.00;;;;;;;-1.95;83.49;97841.33;4372543;81;21164;-83
2021/01/31 01:10:57;;;;;;;109.40;41.87;;;;;;;-2.00;83.44;97836.92;4341522;81;21225;-83
2021/01/31 01:17:03;;;;;;;111.27;44.83;;;;;;;-2.01;83.53;97839.39;4353128;81;21219;-83
2021/01/31 01:23:05;;;;;;;110.90;43.73;;;;;;;-2.00;83.55;97834.79;4344984;81;21160;-83
2021/01/31 01:29:07;;;;;;;118.30;43.97;;;;;;;-2.00;83.55;97838.27;4361173;81;21934;-82
2021/01/31 01:35:11;;;;;;;104.70;42.07;;;;;;;-2.05;83.43;97825.03;4343795;81;21175;-83
2021/01/31 01:41:12;;;;;;;111.17;45.10;;;;;;;-2.04;83.54;97825.28;4353439;81;21142;-83
2021/01/31 01:47:19;;;;;;;111.20;45.50;;;;;;;-2.06;83.50;97822.67;4358926;81;21167;-82
2021/01/31 01:53:24;;;;;;;113.10;45.20;;;;;;;-2.10;83.50;97825.20;4362082;80;21169;-82
2021/01/31 01:59:33;;;;;;;119.13;46.80;;;;;;;-2.12;83.55;97826.09;4314571;81;21593;-82
2021/01/31 02:05:37;;;;;;;113.17;44.17;;;;;;;-2.16;83.47;97832.42;4324191;80;21792;-82
2021/01/31 02:11:39;;;;;;;107.87;43.07;;;;;;;-2.24;83.43;97828.64;4403097;79;21612;-82
2021/01/31 02:18:02;;;;;;;110.00;45.03;;;;;;;-2.31;83.34;97843.09;4394585;80;21174;-82
2021/01/31 02:24:21;;;;;;;113.43;44.10;;;;;;;-2.38;83.38;97847.38;4410295;80;21279;-82
2021/01/31 02:30:54;;;;;;;102.00;42.57;;;;;;;-2.50;83.19;97844.00;4393170;79;21283;-81
2021/01/31 02:37:19;;;;;;;108.83;42.77;;;;;;;-2.65;83.18;97856.56;4395270;79;21114;-81
2021/01/31 02:43:35;;;;;;;98.00;41.77;;;;;;;-2.76;83.18;97855.84;4387584;79;21145;-81
2021/01/31 02:49:46;;;;;;;110.53;42.37;;;;;;;-3.00;83.32;97862.21;4370748;80;21139;-80
2021/01/31 02:55:53;;;;;;;83.20;34.67;;;;;;;-3.07;83.32;97864.58;4373300;80;21155;-81
2021/01/31 03:02:03;;;;;;;85.67;37.23;;;;;;;-3.47;83.42;97872.70;4384176;79;21167;-81
2021/01/31 03:08:17;;;;;;;87.97;35.67;;;;;;;-3.76;83.53;97867.66;4390124;80;21155;-81
2021/01/31 03:14:24;;;;;;;84.83;36.57;;;;;;;-3.93;83.63;97887.64;4367280;80;21630;-80
2021/01/31 03:20:34;;;;;;;94.30;39.57;;;;;;;-4.01;83.99;97887.81;4376830;80;21123;-80
2021/01/31 03:26:50;;;;;;;117.80;47.53;;;;;;;-3.87;84.13;97897.86;4390446;80;21192;-81
2021/01/31 03:33:04;;;;;;;90.45;38.00;;;;;;;-3.82;83.91;97900.98;4380091;80;21573;-80
2021/01/31 03:39:06;;;;;;;110.67;43.43;;;;;;;-4.01;83.21;97913.77;4382049;80;21134;-80
2021/01/31 03:45:11;;;;;;;99.10;39.10;;;;;;;-4.15;83.98;97919.18;4381367;80;21183;-81
2021/01/31 03:51:13;;;;;;;103.03;41.00;;;;;;;-4.15;83.93;97911.16;4344258;81;21141;-80
2021/01/31 03:57:23;;;;;;;96.90;39.83;;;;;;;-4.09;84.26;97919.86;4344740;80;21213;-80
2021/01/31 04:03:34;;;;;;;94.67;39.63;;;;;;;-4.27;84.02;97928.31;4375907;80;21165;-81
2021/01/31 04:09:39;;;;;;;102.43;39.57;;;;;;;-4.29;83.56;97937.17;4389549;80;21207;-81
2021/01/31 04:15:55;;;;;;;101.18;39.25;;;;;;;-4.26;84.14;97947.81;4381809;80;21652;-81
2021/01/31 04:21:57;;;;;;;96.78;38.17;;;;;;;-4.20;84.12;97954.08;4418414;79;21609;-80
2021/01/31 04:28:11;;;;;;;88.57;33.67;;;;;;;-4.21;84.33;97960.49;4384737;79;21147;-81
2021/01/31 04:34:12;;;;;;;95.93;36.40;;;;;;;-4.10;84.51;97975.19;4392882;80;21181;-81
2021/01/31 04:40:17;;;;;;;87.23;36.47;;;;;;;-4.03;84.26;97968.88;4250380;80;25388;-81
2021/01/31 04:46:22;;;;;;;82.93;33.30;;;;;;;-3.91;84.60;97961.62;4171998;84;21307;-81
2021/01/31 04:52:50;;;;;;;79.27;31.95;;;;;;;-3.85;84.53;97970.55;4152570;84;21684;-81
2021/01/31 04:59:00;;;;;;;67.53;28.70;;;;;;;-3.91;84.03;97974.98;4163275;84;21184;-81
2021/01/31 05:05:03;;;;;;;71.07;27.93;;;;;;;-3.95;84.04;97982.85;4188378;84;21290;-81
2021/01/31 05:11:19;;;;;;;56.83;24.53;;;;;;;-3.97;84.26;97989.58;4174508;84;21204;-81
2021/01/31 05:17:21;;;;;;;61.57;22.60;;;;;;;-3.87;84.31;97987.44;4171829;84;21176;-80
2021/01/31 05:23:22;;;;;;;57.10;23.13;;;;;;;-3.96;83.36;98004.55;4177261;84;21327;-81
2021/01/31 05:29:35;;;;;;;45.33;18.70;;;;;;;-3.93;83.96;98009.28;4170899;84;21164;-80
2021/01/31 05:35:51;;;;;;;46.27;19.33;;;;;;;-4.03;83.05;98004.97;4111234;86;21310;-79
2021/01/31 05:41:54;;;;;;;41.65;16.65;;;;;;;-4.19;82.65;98010.96;4060159;87;21230;-80
2021/01/31 05:47:56;;;;;;;47.30;19.40;;;;;;;-4.42;82.87;98016.84;4149795;86;21205;-81
2021/01/31 05:53:58;;;;;;;46.40;18.93;;;;;;;-4.65;83.22;98029.12;4098633;86;21795;-81
2021/01/31 06:00:05;;;;;;;51.37;19.23;;;;;;;-4.65;82.93;98043.80;4167336;84;21322;-82
2021/01/31 06:06:12;;;;;;;43.63;19.27;;;;;;;-4.76;82.59;98055.79;4184872;83;21168;-81
2021/01/31 06:12:25;;;;;;;45.57;19.30;;;;;;;-5.06;82.52;98069.97;4087932;86;21170;-81
2021/01/31 06:18:44;;;;;;;49.20;19.53;;;;;;;-5.41;82.64;98078.64;4091693;86;21624;-81
2021/01/31 06:24:49;;;;;;;53.03;21.43;;;;;;;-5.47;82.72;98083.82;4094855;86;21222;-81
2021/01/31 06:31:13;;;;;;;53.83;18.93;;;;;;;-5.64;82.52;98081.45;4085442;86;21204;-80
2021/01/31 06:37:47;;;;;;;52.10;21.47;;;;;;;-5.75;82.22;98086.70;4090305;86;21178;-81
2021/01/31 06:44:15;;;;;;;55.33;21.37;;;;;;;-5.98;82.29;98090.30;4109628;86;21332;-80
2021/01/31 06:50:31;;;;;;;57.03;24.00;;;;;;;-5.99;82.61;98097.50;4084155;86;21206;-80
2021/01/31 06:56:38;;;;;;;74.55;26.85;;;;;;;-6.18;82.20;98107.89;4091147;86;21402;-80
2021/01/31 07:03:20;;;;;;;59.47;22.87;;;;;;;-6.25;82.43;98108.81;4093464;86;21202;-80
2021/01/31 07:09:46;;;;;;;43.83;19.37;;;;;;;-6.37;82.49;98111.89;4088537;83;21124;-80
2021/01/31 07:16:13;;;;;;;47.97;18.37;;;;;;;-6.44;82.61;98111.47;4125086;85;21300;-80
2021/01/31 07:22:47;;;;;;;50.73;20.87;;;;;;;-6.31;83.01;98112.63;4105957;86;21204;-80
2021/01/31 07:28:53;;;;;;;46.70;20.67;;;;;;;-5.99;83.06;98119.34;4075268;86;21331;-80
2021/01/31 07:35:00;;;;;;;65.07;24.93;;;;;;;-5.62;84.13;98121.39;4104609;85;21384;-80
2021/01/31 07:41:03;;;;;;;60.77;24.27;;;;;;;-5.30;83.68;98123.27;4026572;88;21297;-80
2021/01/31 07:47:05;;;;;;;61.67;27.60;;;;;;;-5.03;84.16;98126.75;4099877;85;21181;-80
2021/01/31 07:53:08;;;;;;;60.90;26.97;;;;;;;-4.78;84.11;98136.19;4112464;85;21805;-80
2021/01/31 07:59:15;;;;;;;59.50;26.67;;;;;;;-4.58;83.73;98142.46;4097095;85;21336;-80
2021/01/31 08:05:51;;;;;;;87.50;31.93;;;;;;;-4.34;83.71;98143.58;4443082;78;22964;-79
2021/01/31 08:12:14;;;;;;;78.70;30.13;;;;;;;-4.17;83.66;98144.55;4386550;80;21287;-79
2021/01/31 08:18:17;;;;;;;85.90;31.87;;;;;;;-3.95;83.11;98145.94;4378898;80;21170;-79
2021/01/31 08:24:58;;;;;;;80.83;33.70;;;;;;;-3.72;82.91;98144.86;4390598;79;21185;-80
2021/01/31 08:31:10;;;;;;;89.03;35.53;;;;;;;-3.49;82.97;98142.97;4383240;79;21142;-79
2021/01/31 08:37:23;;;;;;;84.20;34.90;;;;;;;-3.19;82.37;98156.95;4381598;80;21142;-79
2021/01/31 08:43:41;;;;;;;96.77;39.33;;;;;;;-3.23;81.77;98170.15;4384857;80;21983;-79
2021/01/31 08:49:42;;;;;;;95.90;39.67;;;;;;;-3.17;81.17;98163.34;4375775;80;21256;-79
2021/01/31 08:55:44;;;;;;;106.10;42.77;;;;;;;-2.99;82.36;98166.38;4386605;80;21609;-78
2021/01/31 09:02:05;;;;;;;120.67;48.70;;;;;;;-2.69;82.19;98162.91;4379946;80;22276;-79
2021/01/31 09:08:08;;;;;;;113.13;46.37;;;;;;;-2.42;82.12;98162.13;4366550;80;21650;-79
2021/01/31 09:14:18;;;;;;;97.20;38.00;;;;;;;-2.18;81.49;98159.84;4366283;80;21201;-78
2021/01/31 09:20:28;;;;;;;95.60;40.87;;;;;;;-2.04;80.41;98163.72;4362896;80;21169;-79
2021/01/31 09:26:30;;;;;;;69.80;27.87;;;;;;;-2.13;80.27;98160.24;4336490;80;21293;-79
2021/01/31 09:32:49;;;;;;;75.67;30.67;;;;;;;-1.92;79.56;98158.53;4364567;79;21107;-80
2021/01/31 09:38:53;;;;;;;70.73;28.50;;;;;;;-1.91;80.14;98156.87;4365626;80;21169;-79
2021/01/31 09:44:59;;;;;;;46.73;21.53;;;;;;;-1.08;79.77;98156.14;4361046;80;21181;-79
2021/01/31 09:51:05;;;;;;;53.10;23.27;;;;;;;-0.89;78.29;98155.23;4363716;80;21687;-80
2021/01/31 09:57:24;;;;;;;41.10;18.27;;;;;;;-0.73;78.80;98153.03;4365396;80;21168;-80
2021/01/31 10:03:32;;;;;;;28.07;13.33;;;;;;;-0.79;77.83;98158.35;4359913;80;21178;-80
2021/01/31 10:09:39;;;;;;;30.60;12.03;;;;;;;-0.69;77.13;98157.98;4355600;80;21685;-80
2021/01/31 10:15:42;;;;;;;;;;;;;;;-0.74;75.96;98168.94;4357779;80;21173;-79
2021/01/31 10:21:47;;;;;;;30.80;14.83;;;;;;;-0.78;74.83;98160.47;4358289;80;20197;-80
2021/01/31 10:27:50;;;;;;;21.73;10.05;;;;;;;-0.91;75.71;98161.47;4361598;80;21197;-80
2021/01/31 10:33:54;;;;;;;26.25;11.28;;;;;;;-0.96;74.99;98159.75;4359254;80;21159;-80
2021/01/31 10:39:55;;;;;;;20.47;9.93;;;;;;;-1.49;74.32;98155.87;4360745;80;21904;-80
2021/01/31 10:45:57;;;;;;;20.48;9.38;;;;;;;-1.31;74.09;98162.25;4351928;80;21321;-80
2021/01/31 10:51:58;;;;;;;16.87;8.45;;;;;;;-1.26;74.04;98162.63;4352474;80;21236;-80
2021/01/31 10:58:00;;;;;;;14.87;6.90;;;;;;;-1.32;72.74;98163.36;4356460;80;21360;-80
2021/01/31 11:04:03;;;;;;;18.40;9.00;;;;;;;-1.17;72.76;98160.72;4392641;79;21181;-81
2021/01/31 11:10:06;;;;;;;20.02;10.28;;;;;;;-0.66;72.78;98160.61;4390641;80;21319;-81
2021/01/31 11:16:07;;;;;;;18.52;8.95;;;;;;;-0.53;71.34;98163.62;4384223;80;21161;-80
2021/01/31 11:22:09;;;;;;;20.23;9.43;;;;;;;-0.59;71.08;98136.69;4379856;80;21315;-81
2021/01/31 11:28:12;;;;;;;25.45;10.82;;;;;;;-0.59;71.08;98136.69;4384190;80;21178;-80
2021/01/31 11:34:13;;;;;;;23.57;9.50;;;;;;;-0.45;71.85;98182.42;4400548;80;21263;-81
2021/01/31 11:40:15;;;;;;;24.07;12.35;;;;;;;-0.55;71.19;98149.16;4394052;80;21162;-81
2021/01/31 11:46:16;;;;;;;29.30;12.40;;;;;;;-0.55;71.19;98149.16;4385364;80;21726;-80
2021/01/31 11:52:18;;;;;;;23.83;11.35;;;;;;;-1.13;69.81;98127.56;4386763;80;21155;-80
2021/01/31 11:58:20;;;;;;;24.92;12.25;;;;;;;-1.13;69.81;98127.56;4393426;80;21295;-81
2021/01/31 12:04:21;;;;;;;27.42;12.28;;;;;;;-0.76;69.87;98140.24;4397675;80;21627;-81
2021/01/31 12:10:25;;;;;;;23.02;11.35;;;;;;;-0.69;70.09;98138.41;4402436;80;21668;-80
2021/01/31 12:16:27;;;;;;;24.60;11.63;;;;;;;-0.81;69.07;98136.92;4405049;79;21193;-80
2021/01/31 12:22:28;;;;;;;26.85;12.37;;;;;;;-0.86;69.46;98127.72;4398106;80;21209;-80
2021/01/31 12:28:30;;;;;;;27.13;11.97;;;;;;;-0.80;69.32;98127.77;4400749;80;21137;-80
2021/01/31 12:34:32;;;;;;;25.70;11.55;;;;;;;-0.87;68.64;98128.27;4406192;80;21162;-80
2021/01/31 12:40:33;;;;;;;27.07;11.63;;;;;;;-0.91;68.98;98119.25;4277058;81;21191;-80
2021/01/31 12:46:35;;;;;;;23.70;11.20;;;;;;;-0.92;68.98;98122.27;4284692;82;21213;-80
2021/01/31 12:52:37;;;;;;;24.82;11.57;;;;;;;-0.98;68.61;98116.83;4403623;79;21693;-79
2021/01/31 12:58:40;;;;;;;25.05;10.68;;;;;;;-1.03;67.47;98108.39;4397758;80;21165;-78
2021/01/31 13:04:42;;;;;;;23.73;11.33;;;;;;;-1.03;67.47;98108.39;4398821;80;21579;-79
2021/01/31 13:10:44;;;;;;;23.27;10.40;;;;;;;-1.03;67.86;98111.63;4402155;80;21782;-79
2021/01/31 13:16:45;;;;;;;20.10;9.53;;;;;;;-0.96;68.26;98112.73;4312496;81;21158;-79
2021/01/31 13:22:47;;;;;;;26.48;11.25;;;;;;;-1.00;67.58;98106.41;4271326;82;21202;-79
2021/01/31 13:28:49;;;;;;;23.73;10.67;;;;;;;-1.09;67.60;98105.66;4332099;81;21182;-79
2021/01/31 13:34:50;;;;;;;24.43;11.73;;;;;;;-1.16;67.29;98112.63;4315632;81;21493;-79
2021/01/31 13:40:52;;;;;;;25.85;10.30;;;;;;;-1.25;67.09;98114.55;4266154;82;21291;-78
2021/01/31 13:46:55;;;;;;;26.37;11.40;;;;;;;-1.54;66.90;98115.22;4305134;81;21165;-80
2021/01/31 13:53:13;;;;;;;26.03;9.73;;;;;;;-1.60;66.96;98116.49;4566267;76;22959;-79
2021/01/31 13:59:16;;;;;;;26.50;11.20;;;;;;;-1.77;66.88;98121.87;4504468;77;21695;-79
2021/01/31 14:05:19;;;;;;;26.17;9.50;;;;;;;-1.74;66.85;98122.00;4506224;77;21154;-78
2021/01/31 14:11:20;;;;;;;23.10;10.67;;;;;;;-2.04;66.53;98112.77;4508705;77;22397;-79
2021/01/31 14:17:22;;;;;;;27.93;11.63;;;;;;;-2.11;67.07;98116.45;4497793;77;21192;-79
2021/01/31 14:23:23;;;;;;;34.53;12.73;;;;;;;-2.10;66.68;98108.67;4503588;77;21189;-79
2021/01/31 14:29:25;;;;;;;25.70;10.10;;;;;;;-2.21;66.48;98110.84;4344251;80;21187;-79
2021/01/31 14:35:30;;;;;;;41.23;12.70;;;;;;;-2.33;66.39;98107.98;4351224;80;21584;-79
2021/01/31 14:41:34;;;;;;;22.03;9.00;;;;;;;-2.45;66.36;98105.13;4449664;78;21165;-80
2021/01/31 14:47:38;;;;;;;18.60;8.13;;;;;;;-2.59;66.22;98108.48;4334653;80;21294;-78
2021/01/31 14:54:07;;;;;;;19.33;8.60;;;;;;;-2.65;66.13;98106.25;4367102;79;21443;-80
2021/01/31 15:00:15;;;;;;;30.70;11.03;;;;;;;-2.74;66.01;98100.84;4303000;80;21613;-80
2021/01/31 15:06:34;;;;;;;34.73;12.13;;;;;;;-2.77;66.01;98098.02;4287024;80;21188;-80
2021/01/31 15:12:36;;;;;;;52.27;15.80;;;;;;;-2.83;65.96;98083.97;4317396;80;21355;-80
2021/01/31 15:18:38;;;;;;;50.07;15.53;;;;;;;-2.90;66.19;98083.64;4371315;80;21177;-80
2021/01/31 15:24:40;;;;;;;44.57;15.43;;;;;;;-2.79;66.26;98081.47;4338204;80;21209;-80
2021/01/31 15:30:41;;;;;;;54.93;19.80;;;;;;;-2.80;66.11;98081.23;4343352;80;21362;-81
2021/01/31 15:36:43;;;;;;;66.33;21.73;;;;;;;-2.93;66.22;98078.91;4359826;80;21181;-80
2021/01/31 15:42:44;;;;;;;48.93;18.20;;;;;;;-2.97;66.15;98076.59;4342691;80;21189;-81
2021/01/31 15:48:47;;;;;;;43.90;16.67;;;;;;;-3.27;66.30;98084.08;4339327;80;21223;-80
2021/01/31 15:54:49;;;;;;;41.17;13.33;;;;;;;-3.62;66.23;98083.66;4363473;80;21760;-79
2021/01/31 16:00:51;;;;;;;46.30;16.13;;;;;;;-3.98;66.44;98077.56;4361453;80;21867;-79
2021/01/31 16:13:10;;;;;;;55.97;22.27;;;;;;;-4.49;67.06;98079.23;4442716;79;23003;-78
2021/01/31 16:19:16;;;;;;;71.37;25.30;;;;;;;-4.73;67.40;98078.69;4378553;80;21209;-77
2021/01/31 16:25:18;;;;;;;77.47;32.50;;;;;;;-4.87;67.64;98083.23;4395317;79;21166;-78
2021/01/31 16:31:19;;;;;;;76.67;30.03;;;;;;;-4.96;67.93;98077.79;4403837;79;21875;-78
2021/01/31 16:37:21;;;;;;;81.57;32.10;;;;;;;-5.20;67.86;98073.17;4404002;79;21180;-78
2021/01/31 16:43:23;;;;;;;125.53;46.00;;;;;;;-5.30;68.25;98081.37;4399010;79;21854;-78
2021/01/31 16:49:24;;;;;;;133.93;53.43;;;;;;;-5.34;68.44;98067.03;4403929;79;21165;-78
2021/01/31 16:55:26;;;;;;;153.70;54.73;;;;;;;-5.49;68.55;98071.31;4411785;79;21729;-79
2021/01/31 17:01:34;;;;;;;141.10;52.17;;;;;;;-5.60;68.56;98083.77;4404822;79;21141;-79
2021/01/31 17:07:35;;;;;;;121.10;49.80;;;;;;;-5.71;69.04;98080.48;4402729;79;21701;-77
2021/01/31 17:13:39;;;;;;;121.73;49.23;;;;;;;-5.83;68.94;98082.86;4401043;79;21185;-77
2021/01/31 17:19:41;;;;;;;111.37;44.23;;;;;;;-6.13;69.05;98082.52;4362232;79;21185;-77
2021/01/31 17:25:44;;;;;;;124.80;51.07;;;;;;;-6.45;69.04;98075.25;4377025;79;21741;-77
2021/01/31 17:31:45;;;;;;;176.23;67.87;;;;;;;-6.66;69.59;98069.43;4367746;79;21867;-77
2021/01/31 17:37:48;;;;;;;160.73;61.23;;;;;;;-6.72;69.84;98079.09;4376007;79;21126;-77
2021/01/31 17:43:49;;;;;;;157.67;58.87;;;;;;;-6.80;70.15;98080.52;4344463;79;21599;-77
2021/01/31 17:49:51;;;;;;;148.43;56.10;;;;;;;-6.86;70.13;98087.52;4365373;79;21837;-76
2021/01/31 17:55:53;;;;;;;159.93;59.77;;;;;;;-6.97;70.12;98081.50;4254424;79;10000349;-77
2021/01/31 18:01:54;;;;;;;151.83;56.37;;;;;;;-7.09;70.57;98082.45;4367907;79;21177;-77
2021/01/31 18:07:56;;;;;;;176.43;62.00;;;;;;;-7.19;70.44;98080.45;4367855;79;21288;-76
2021/01/31 18:13:58;;;;;;;180.53;65.10;;;;;;;-7.38;70.42;98068.41;4203553;82;21849;-77
2021/01/31 18:20:00;;;;;;;200.13;77.53;;;;;;;-7.56;70.66;98077.09;4356516;79;21277;-76
2021/01/31 18:26:02;;;;;;;193.97;70.73;;;;;;;-7.57;71.25;98078.17;4366491;79;21158;-76
2021/01/31 18:32:04;;;;;;;208.00;80.90;;;;;;;-7.66;70.79;98073.21;4377818;79;21129;-76
2021/01/31 18:38:08;;;;;;;243.23;86.07;;;;;;;-7.84;71.19;98075.75;4354011;79;21130;-76
2021/01/31 18:44:10;;;;;;;217.70;80.90;;;;;;;-7.90;71.52;98064.38;4366572;79;21183;-77
2021/01/31 18:50:16;;;;;;;223.70;82.93;;;;;;;-8.02;71.68;98064.48;4367160;79;21181;-77
2021/01/31 18:56:17;;;;;;;255.03;90.87;;;;;;;-8.13;71.74;98057.91;4221055;79;43299;-77
2021/01/31 19:02:19;;;;;;;227.97;84.03;;;;;;;-8.32;71.57;98057.05;4092087;85;21332;-77
2021/01/31 19:08:20;;;;;;;233.70;83.00;;;;;;;-8.40;71.89;98053.65;4084678;85;21873;-77
2021/01/31 19:14:22;;;;;;;274.67;95.53;;;;;;;-8.42;72.15;98053.12;4131291;84;21165;-77
2021/01/31 19:20:25;;;;;;;275.27;95.70;;;;;;;-8.31;72.39;98057.82;4127885;85;21677;-77
2021/01/31 19:26:26;;;;;;;250.97;90.47;;;;;;;-8.37;72.20;98058.92;4127099;85;21217;-78
2021/01/31 19:32:28;;;;;;;271.03;92.93;;;;;;;-8.57;72.22;98048.45;4126156;85;21368;-78
2021/01/31 19:38:29;;;;;;;247.50;92.23;;;;;;;-8.77;72.16;98051.99;4124581;85;21205;-77
2021/01/31 19:44:31;;;;;;;255.80;90.10;;;;;;;-8.82;72.59;98042.76;4128175;85;21380;-78
2021/01/31 19:50:33;;;;;;;263.73;89.20;;;;;;;-8.86;72.84;98035.07;4124141;85;21189;-78
2021/01/31 19:56:38;;;;;;;280.13;94.43;;;;;;;-8.95;72.70;98023.45;4128191;84;21165;-78
2021/01/31 20:02:38;;;;;;;266.03;85.03;;;;;;;-9.08;72.71;98028.02;4124355;85;21180;-77
2021/01/31 20:08:40;;;;;;;235.03;86.60;;;;;;;-9.22;72.90;98019.63;4125883;85;21375;-78
2021/01/31 20:14:43;;;;;;;226.03;83.50;;;;;;;-9.13;73.51;98020.63;4114431;85;21222;-77
2021/01/31 20:20:47;;;;;;;226.00;84.20;;;;;;;-9.15;73.13;98012.95;4115919;85;21181;-77
2021/01/31 20:26:49;;;;;;;214.43;78.33;;;;;;;-9.22;73.17;98011.66;4113168;85;21297;-77
2021/01/31 20:32:52;;;;;;;221.73;81.20;;;;;;;-9.33;73.42;98014.09;4117029;85;21549;-77
2021/01/31 20:38:54;;;;;;;254.27;88.13;;;;;;;-9.27;73.44;98009.03;4112326;85;21177;-77
2021/01/31 20:44:55;;;;;;;231.67;81.20;;;;;;;-9.41;73.51;98008.80;4117941;85;21734;-78
2021/01/31 20:50:57;;;;;;;200.27;75.13;;;;;;;-9.43;73.37;98004.84;4113633;85;21181;-77
2021/01/31 20:56:58;;;;;;;193.00;70.70;;;;;;;-9.62;73.52;98001.19;4111723;85;21217;-77
2021/01/31 21:03:00;;;;;;;184.43;69.37;;;;;;;-9.60;73.91;97992.45;4116766;85;21209;-77
2021/01/31 21:09:02;;;;;;;194.30;72.50;;;;;;;-9.55;73.89;98000.39;4113051;85;21360;-77
2021/01/31 21:15:07;;;;;;;194.00;73.60;;;;;;;-9.49;73.99;97998.78;4080709;85;21178;-75
2021/01/31 21:21:08;;;;;;;180.43;68.93;;;;;;;-9.47;73.90;98004.58;4085055;85;21647;-75
2021/01/31 21:27:10;;;;;;;187.33;69.57;;;;;;;-9.57;73.43;97994.04;4079923;84;21348;-76
2021/01/31 21:33:11;;;;;;;202.40;71.57;;;;;;;-9.86;73.48;97997.81;4086442;85;21196;-76
2021/01/31 21:39:13;;;;;;;199.77;75.13;;;;;;;-9.95;73.93;98003.92;4087454;85;21193;-76
2021/01/31 21:45:16;;;;;;;216.47;78.37;;;;;;;-9.99;73.92;98010.82;4084603;85;21190;-76
2021/01/31 21:51:18;;;;;;;200.67;72.17;;;;;;;-9.99;74.15;98018.22;4084807;85;21301;-77
2021/01/31 21:57:20;;;;;;;235.80;81.13;;;;;;;-10.12;74.10;98020.13;4086025;85;21673;-76
2021/01/31 22:03:24;;;;;;;227.63;82.10;;;;;;;-10.18;74.03;98013.77;4087231;85;21190;-76
2021/01/31 22:09:26;;;;;;;221.82;79.82;;;;;;;-10.12;74.19;98003.45;4084673;85;21241;-76
2021/01/31 22:15:27;;;;;;;220.37;77.97;;;;;;;-10.29;74.12;97996.31;4087558;85;21229;-76
2021/01/31 22:21:29;;;;;;;234.63;83.77;;;;;;;-10.39;74.26;97996.30;4087380;85;22278;-77
2021/01/31 22:27:31;;;;;;;260.63;93.40;;;;;;;-10.33;74.55;97988.11;4083705;85;21178;-76
2021/01/31 22:33:32;;;;;;;242.23;88.93;;;;;;;-10.21;74.42;97991.27;4085469;85;21174;-77
2021/01/31 22:39:34;;;;;;;275.23;91.93;;;;;;;-10.32;74.68;97993.65;4087705;85;21198;-76
2021/01/31 22:45:35;;;;;;;280.57;98.97;;;;;;;-10.32;74.67;97988.91;4083420;85;21194;-77
2021/01/31 22:51:37;;;;;;;244.03;83.23;;;;;;;-10.23;74.77;97984.14;4083765;85;21225;-76
2021/01/31 22:57:39;;;;;;;248.60;88.57;;;;;;;-10.28;74.21;97982.02;4085976;85;21202;-76
2021/01/31 23:03:41;;;;;;;259.33;93.57;;;;;;;-10.62;73.99;97980.97;4082921;85;21211;-76
2021/01/31 23:09:43;;;;;;;253.87;86.13;;;;;;;-10.55;74.62;97973.55;4087516;85;21220;-76
2021/01/31 23:15:46;;;;;;;255.37;94.43;;;;;;;-10.60;74.58;97970.38;4085220;85;21193;-76
2021/01/31 23:21:48;;;;;;;275.97;91.03;;;;;;;-10.47;74.95;97969.05;4087186;85;21296;-75
2021/01/31 23:27:49;;;;;;;290.73;98.47;;;;;;;-10.46;74.39;97962.17;4087861;85;21226;-77
2021/01/31 23:33:51;;;;;;;288.13;96.30;;;;;;;-10.63;74.21;97960.33;4083484;85;21245;-75
2021/01/31 23:39:52;;;;;;;284.67;97.33;;;;;;;-10.92;74.17;97961.09;4083406;85;21193;-75
2021/01/31 23:45:54;;;;;;;303.03;102.50;;;;;;;-11.07;74.59;97945.23;4085289;85;21190;-75
2021/01/31 23:51:55;;;;;;;303.67;101.73;;;;;;;-10.92;74.91;97946.04;4083421;85;21217;-75
2021/01/31 23:57:57;;;;;;;287.07;93.60;;;;;;;-10.97;74.46;97941.26;4084524;85;21579;-75
